createdAt,value
2019-05-03T00:00:42.563Z,13.30
2019-05-03T00:03:23.404Z,13.30
2019-05-03T00:06:06.612Z,13.30
2019-05-03T00:08:47.539Z,13.30
2019-05-03T00:11:28.224Z,13.30
2019-05-03T00:14:08.897Z,13.40
2019-05-03T00:16:52.201Z,13.30
2019-05-03T00:19:33.339Z,13.30
2019-05-03T00:22:14.376Z,13.30
2019-05-03T00:25:05.306Z,13.30
2019-05-03T00:27:38.419Z,13.40
2019-05-03T00:30:19.125Z,13.40
2019-05-03T00:32:59.572Z,13.40
2019-05-03T00:35:44.395Z,13.50
2019-05-03T00:38:24.813Z,13.50
2019-05-03T00:41:05.407Z,13.50
2019-05-03T00:43:46.152Z,13.60
2019-05-03T00:46:26.944Z,13.60
2019-05-03T00:49:07.660Z,13.70
2019-05-03T00:51:48.343Z,13.70
2019-05-03T00:54:29.219Z,13.70
2019-05-03T00:57:11.947Z,13.70
2019-05-03T00:59:52.916Z,13.70
2019-05-03T01:02:33.264Z,13.70
2019-05-03T01:05:14.207Z,13.80
2019-05-03T01:07:54.544Z,13.70
2019-05-03T01:10:35.311Z,13.70
2019-05-03T01:13:15.984Z,13.70
2019-05-03T01:19:03.325Z,13.70
2019-05-03T01:21:44.044Z,13.70
2019-05-03T01:24:24.939Z,13.60
2019-05-03T01:27:05.717Z,13.50
2019-05-03T01:29:46.596Z,13.30
2019-05-03T01:32:27.296Z,13.20
2019-05-03T01:35:07.990Z,13.10
2019-05-03T01:37:48.488Z,13.10
2019-05-03T01:40:29.268Z,13.00
2019-05-03T01:43:07.944Z,13.00
2019-05-03T01:45:55.663Z,12.90
2019-05-03T01:52:02.233Z,12.80
2019-05-03T01:54:52.111Z,12.70
2019-05-03T01:57:41.836Z,12.50
2019-05-03T02:06:18.775Z,12.20
2019-05-03T02:09:27.232Z,12.10
2019-05-03T02:12:15.179Z,12.10
2019-05-03T02:15:03.376Z,12.10
2019-05-03T02:17:52.040Z,12.00
2019-05-03T02:20:41.834Z,12.00
2019-05-03T02:23:31.924Z,12.00
2019-05-03T02:26:19.995Z,11.90
2019-05-03T02:29:08.047Z,11.80
2019-05-03T02:31:55.772Z,11.80
2019-05-03T02:34:44.249Z,11.70
2019-05-03T02:37:33.443Z,11.50
2019-05-03T02:40:14.196Z,11.50
2019-05-03T02:46:05.891Z,11.50
2019-05-03T02:49:06.543Z,11.40
2019-05-03T02:51:46.956Z,11.40
2019-05-03T02:54:27.353Z,11.20
2019-05-03T02:57:07.926Z,11.20
2019-05-03T02:59:49.921Z,11.30
2019-05-03T03:05:16.693Z,11.40
2019-05-03T03:07:57.512Z,11.40
2019-05-03T03:10:38.316Z,11.40
2019-05-03T03:13:19.549Z,11.40
2019-05-03T03:16:00.082Z,11.40
2019-05-03T03:18:41.107Z,11.40
2019-05-03T03:21:22.562Z,11.40
2019-05-03T03:24:05.893Z,11.40
2019-05-03T03:26:47.278Z,11.40
2019-05-03T03:29:28.427Z,11.30
2019-05-03T03:32:10.608Z,11.20
2019-05-03T03:35:00.519Z,11.10
2019-05-03T03:37:35.346Z,11.10
2019-05-03T03:40:16.458Z,10.90
2019-05-03T03:42:56.849Z,10.90
2019-05-03T03:45:37.768Z,10.90
2019-05-03T03:48:18.485Z,10.70
2019-05-03T03:50:58.876Z,10.70
2019-05-03T03:53:39.316Z,10.60
2019-05-03T03:56:20.163Z,10.50
2019-05-03T03:59:01.416Z,10.40
2019-05-03T04:01:41.972Z,10.30
2019-05-03T04:04:25.746Z,10.20
2019-05-03T04:07:06.491Z,10.10
2019-05-03T04:09:47.717Z,10.10
2019-05-03T04:12:28.309Z,10.00
2019-05-03T04:18:17.631Z,9.80
2019-05-03T04:20:58.574Z,9.80
2019-05-03T04:23:38.798Z,9.80
2019-05-03T04:26:19.637Z,9.70
2019-05-03T04:29:00.070Z,9.70
2019-05-03T04:31:40.514Z,9.70
2019-05-03T04:34:20.864Z,9.80
2019-05-03T04:37:01.525Z,9.90
2019-05-03T04:39:42.044Z,10.10
2019-05-03T04:42:25.333Z,10.20
2019-05-03T04:45:06.090Z,10.30
2019-05-03T04:47:47.370Z,10.50
2019-05-03T04:50:27.815Z,10.60
2019-05-03T04:53:08.340Z,10.70
2019-05-03T04:55:49.462Z,10.70
2019-05-03T04:58:30.080Z,10.80
2019-05-03T05:01:10.464Z,10.90
2019-05-03T05:03:51.168Z,11.00
2019-05-03T05:06:31.981Z,11.00
2019-05-03T05:09:12.481Z,11.00
2019-05-03T05:11:54.826Z,11.10
2019-05-03T05:14:35.442Z,11.10
2019-05-03T05:17:18.329Z,11.10
2019-05-03T05:20:05.322Z,11.10
2019-05-03T05:22:45.568Z,11.20
2019-05-03T05:25:30.840Z,11.30
2019-05-03T05:28:16.227Z,11.40
2019-05-03T05:30:56.660Z,11.50
2019-05-03T05:33:37.476Z,11.50
2019-05-03T05:36:17.788Z,11.50
2019-05-03T05:38:58.031Z,11.60
2019-05-03T05:41:38.664Z,11.60
2019-05-03T05:44:19.174Z,11.80
2019-05-03T05:47:19.892Z,11.80
2019-05-03T05:50:02.287Z,11.90
2019-05-03T05:52:44.733Z,12.00
2019-05-03T05:58:31.363Z,12.30
2019-05-03T06:01:16.283Z,12.40
2019-05-03T06:03:56.946Z,12.50
2019-05-03T06:09:45.916Z,12.70
2019-05-03T06:15:34.976Z,12.90
2019-05-03T06:18:17.076Z,13.20
2019-05-03T06:21:17.524Z,13.60
2019-05-03T06:23:59.864Z,14.80
2019-05-03T06:29:45.470Z,17.50
2019-05-03T06:32:27.384Z,18.20
2019-05-03T06:35:08.276Z,18.00
2019-05-03T06:37:49.144Z,17.80
2019-05-03T06:40:32.800Z,17.50
2019-05-03T06:43:13.244Z,17.10
2019-05-03T06:45:54.807Z,16.70
2019-05-03T06:48:35.410Z,16.50
2019-05-03T06:51:19.875Z,16.20
2019-05-03T06:53:58.469Z,16.10
2019-05-03T06:56:41.370Z,15.90
2019-05-03T06:59:24.939Z,15.80
2019-05-03T07:05:40.664Z,15.80
2019-05-03T07:11:24.738Z,15.60
2019-05-03T07:14:05.413Z,15.50
2019-05-03T07:16:45.628Z,15.40
2019-05-03T07:19:26.507Z,15.20
2019-05-03T07:22:07.245Z,15.10
2019-05-03T07:24:47.616Z,15.20
2019-05-03T07:27:28.380Z,15.20
2019-05-03T07:30:09.449Z,15.20
2019-05-03T07:32:51.476Z,15.20
2019-05-03T07:35:32.324Z,15.10
2019-05-03T07:38:12.808Z,15.00
2019-05-03T07:40:54.979Z,14.90
2019-05-03T07:43:36.288Z,14.80
2019-05-03T07:46:16.404Z,14.60
2019-05-03T07:48:56.776Z,14.40
2019-05-03T07:51:37.252Z,14.40
2019-05-03T07:54:17.699Z,14.40
2019-05-03T07:56:59.867Z,14.60
2019-05-03T07:59:40.528Z,14.60
2019-05-03T08:02:24.160Z,14.70
2019-05-03T08:05:05.251Z,14.80
2019-05-03T08:07:46.443Z,14.90
2019-05-03T08:10:26.812Z,15.10
2019-05-03T08:13:07.384Z,15.30
2019-05-03T08:15:47.740Z,16.30
2019-05-03T08:18:28.221Z,18.30
2019-05-03T08:21:09.192Z,19.80
2019-05-03T08:23:50.153Z,20.60
2019-05-03T08:26:30.563Z,22.10
2019-05-03T08:29:16.084Z,23.90
2019-05-03T08:32:15.416Z,25.60
2019-05-03T08:38:01.136Z,27.40
2019-05-03T08:40:45.401Z,28.10
2019-05-03T08:43:26.496Z,28.90
2019-05-03T08:46:06.835Z,30.10
2019-05-03T08:48:47.284Z,28.80
2019-05-03T08:51:28.037Z,28.30
2019-05-03T08:54:08.536Z,29.50
2019-05-03T08:56:49.491Z,30.20
2019-05-03T08:59:32.767Z,30.60
2019-05-03T09:02:16.431Z,29.90
2019-05-03T09:04:54.944Z,29.00
2019-05-03T09:07:35.589Z,29.20
2019-05-03T09:13:25.101Z,28.50
2019-05-03T09:16:06.603Z,28.00
2019-05-03T09:18:47.503Z,28.10
2019-05-03T09:21:28.236Z,27.40
2019-05-03T09:24:08.885Z,27.40
2019-05-03T09:26:49.784Z,27.90
2019-05-03T09:29:40.241Z,28.60
2019-05-03T09:32:14.642Z,28.80
2019-05-03T09:34:55.464Z,27.80
2019-05-03T09:37:36.253Z,26.80
2019-05-03T09:40:16.660Z,25.80
2019-05-03T09:42:57.490Z,25.90
2019-05-03T09:45:38.528Z,26.60
2019-05-03T09:48:18.940Z,26.80
2019-05-03T09:50:59.948Z,26.30
2019-05-03T09:53:42.193Z,26.00
2019-05-03T09:59:27.328Z,27.20
2019-05-03T10:02:07.816Z,27.60
2019-05-03T10:04:48.657Z,27.60
2019-05-03T10:07:29.164Z,27.50
2019-05-03T10:10:10.189Z,27.20
2019-05-03T10:12:51.161Z,27.00
2019-05-03T10:15:31.788Z,27.00
2019-05-03T10:18:13.969Z,27.10
2019-05-03T10:20:56.080Z,27.00
2019-05-03T10:23:38.636Z,26.30
2019-05-03T10:26:19.782Z,25.70
2019-05-03T10:29:00.263Z,24.80
2019-05-03T10:31:42.549Z,23.70
2019-05-03T10:34:21.431Z,22.80
2019-05-03T10:40:10.148Z,22.00
2019-05-03T10:42:51.173Z,21.90
2019-05-03T10:45:32.169Z,22.00
2019-05-03T10:48:15.280Z,22.00
2019-05-03T10:50:56.439Z,22.00
2019-05-03T10:56:45.581Z,22.50
2019-05-03T10:59:26.513Z,22.10
2019-05-03T11:02:26.460Z,21.60
2019-05-03T11:05:06.974Z,21.10
2019-05-03T11:07:47.512Z,20.50
2019-05-03T11:10:27.951Z,20.00
2019-05-03T11:13:08.873Z,19.60
2019-05-03T11:15:49.341Z,19.30
2019-05-03T11:18:29.957Z,19.30
2019-05-03T11:21:10.934Z,19.40
2019-05-03T11:23:51.552Z,19.30
2019-05-03T11:26:35.052Z,19.40
2019-05-03T11:29:15.832Z,19.60
2019-05-03T11:32:00.529Z,19.90
2019-05-03T11:35:01.640Z,20.40
2019-05-03T11:40:49.384Z,20.00
2019-05-03T11:43:30.389Z,19.90
2019-05-03T11:46:10.932Z,20.10
2019-05-03T11:48:52.157Z,20.40
2019-05-03T11:51:32.497Z,20.40
2019-05-03T11:54:12.949Z,20.30
2019-05-03T11:56:55.621Z,20.30
2019-05-03T11:59:36.739Z,20.50
2019-05-03T12:02:36.660Z,20.70
2019-05-03T12:05:36.464Z,20.60
2019-05-03T12:08:17.322Z,20.30
2019-05-03T12:11:01.267Z,20.30
2019-05-03T12:13:40.101Z,20.10
2019-05-03T12:16:32.637Z,19.80
2019-05-03T12:19:15.685Z,19.70
2019-05-03T12:21:51.852Z,19.50
2019-05-03T12:24:41.391Z,19.40
2019-05-03T12:27:30.532Z,19.40
2019-05-03T12:30:18.688Z,19.90
2019-05-03T12:33:06.449Z,20.70
2019-05-03T12:35:55.204Z,21.00
2019-05-03T12:38:43.671Z,21.00
2019-05-03T12:41:25.412Z,20.90
2019-05-03T12:44:06.204Z,21.00
2019-05-03T12:46:46.891Z,21.00
2019-05-03T12:49:27.033Z,21.10
2019-05-03T12:52:10.331Z,21.40
2019-05-03T12:54:50.419Z,21.70
2019-05-03T12:57:30.761Z,21.80
2019-05-03T13:03:20.423Z,22.20
2019-05-03T13:06:01.260Z,22.60
2019-05-03T13:08:42.192Z,23.10
2019-05-03T13:11:25.019Z,23.40
2019-05-03T13:14:04.925Z,23.20
2019-05-03T13:16:45.793Z,22.70
2019-05-03T13:19:26.933Z,22.70
2019-05-03T13:22:07.480Z,22.70
2019-05-03T13:24:48.274Z,22.50
2019-05-03T13:27:28.586Z,22.20
2019-05-03T13:30:08.719Z,22.10
2019-05-03T13:32:49.335Z,22.00
2019-05-03T13:35:29.956Z,22.00
2019-05-03T13:38:10.352Z,21.80
2019-05-03T13:40:51.737Z,22.00
2019-05-03T13:43:32.313Z,22.10
2019-05-03T13:46:12.864Z,22.00
2019-05-03T13:48:55.477Z,21.70
2019-05-03T13:51:35.986Z,21.60
2019-05-03T13:54:17.260Z,21.60
2019-05-03T13:56:58.560Z,21.50
2019-05-03T13:59:39.688Z,21.70
2019-05-03T14:02:20.096Z,21.90
2019-05-03T14:05:00.787Z,22.00
2019-05-03T14:07:41.564Z,22.00
2019-05-03T14:10:21.924Z,22.40
2019-05-03T14:13:02.600Z,22.70
2019-05-03T14:15:45.199Z,22.80
2019-05-03T14:18:25.944Z,22.70
2019-05-03T14:24:15.651Z,22.30
2019-05-03T14:26:56.223Z,22.30
2019-05-03T14:29:36.821Z,22.00
2019-05-03T14:32:25.860Z,21.80
2019-05-03T14:34:59.760Z,21.80
2019-05-03T14:37:40.021Z,21.80
2019-05-03T14:40:20.656Z,21.60
2019-05-03T14:43:01.041Z,21.70
2019-05-03T14:45:41.849Z,21.70
2019-05-03T14:48:24.637Z,21.60
2019-05-03T14:51:05.470Z,21.50
2019-05-03T14:53:46.677Z,21.30
2019-05-03T14:56:47.405Z,20.90
2019-05-03T14:59:29.829Z,20.70
2019-05-03T15:05:18.076Z,21.00
2019-05-03T15:07:58.691Z,21.00
2019-05-03T15:10:39.568Z,21.00
2019-05-03T15:13:20.521Z,21.00
2019-05-03T15:16:01.264Z,20.90
2019-05-03T15:18:41.749Z,20.80
2019-05-03T15:21:22.639Z,20.70
2019-05-03T15:24:05.290Z,20.60
2019-05-03T15:26:46.040Z,20.50
2019-05-03T15:29:26.840Z,20.60
2019-05-03T15:32:07.372Z,20.60
2019-05-03T15:34:48.139Z,20.50
2019-05-03T15:37:28.915Z,20.20
2019-05-03T15:40:09.337Z,20.10
2019-05-03T15:42:51.581Z,20.00
2019-05-03T15:48:27.960Z,19.50
2019-05-03T15:51:08.648Z,19.20
2019-05-03T15:53:49.064Z,18.80
2019-05-03T15:56:29.839Z,18.70
2019-05-03T15:59:10.245Z,18.70
2019-05-03T16:01:50.904Z,18.80
2019-05-03T16:04:31.688Z,18.80
2019-05-03T16:07:14.288Z,18.90
2019-05-03T16:09:55.300Z,19.00
2019-05-03T16:12:36.368Z,18.80
2019-05-03T16:15:16.682Z,18.80
2019-05-03T16:17:57.407Z,18.70
2019-05-03T16:20:39.447Z,18.70
2019-05-03T16:23:20.432Z,18.60
2019-05-03T16:26:01.091Z,18.60
2019-05-03T16:28:46.567Z,18.60
2019-05-03T16:31:27.688Z,18.50
2019-05-03T16:34:08.596Z,18.60
2019-05-03T16:36:49.041Z,18.60
2019-05-03T16:39:30.304Z,18.40
2019-05-03T16:42:10.939Z,18.20
2019-05-03T16:44:51.484Z,17.90
2019-05-03T16:47:32.121Z,17.70
2019-05-03T16:50:14.452Z,17.40
2019-05-03T16:52:55.568Z,17.30
2019-05-03T16:55:36.419Z,17.30
2019-05-03T16:58:17.142Z,17.20
2019-05-03T17:00:57.832Z,17.10
2019-05-03T17:03:41.514Z,17.20
2019-05-03T17:09:44.943Z,17.10
2019-05-03T17:12:30.177Z,17.10
2019-05-03T17:15:11.196Z,17.10
2019-05-03T17:17:52.077Z,17.10
2019-05-03T17:20:32.262Z,17.10
2019-05-03T17:23:12.978Z,17.00
2019-05-03T17:25:53.924Z,16.80
2019-05-03T17:28:35.354Z,16.70
2019-05-03T17:31:15.932Z,16.60
2019-05-03T17:33:57.019Z,16.40
2019-05-03T17:36:37.623Z,16.20
2019-05-03T17:39:20.103Z,16.00
2019-05-03T17:45:05.659Z,15.80
2019-05-03T17:47:46.123Z,15.70
2019-05-03T17:50:26.972Z,15.60
2019-05-03T17:53:27.724Z,15.40
2019-05-03T17:59:15.203Z,15.20
2019-05-03T18:02:00.408Z,15.10
2019-05-03T18:04:43.043Z,15.00
2019-05-03T18:10:09.204Z,14.90
2019-05-03T18:12:49.562Z,14.80
2019-05-03T18:15:30.580Z,14.70
2019-05-03T18:18:11.003Z,14.60
2019-05-03T18:20:51.719Z,14.60
2019-05-03T18:23:32.500Z,14.50
2019-05-03T18:26:14.408Z,14.50
2019-05-03T18:28:55.603Z,14.40
2019-05-03T18:31:36.412Z,14.40
2019-05-03T18:34:19.700Z,14.40
2019-05-03T18:36:59.487Z,14.30
2019-05-03T18:39:40.176Z,14.20
2019-05-03T18:42:24.498Z,14.20
2019-05-03T18:45:09.000Z,14.20
2019-05-03T18:50:37.692Z,14.00
2019-05-03T18:53:18.724Z,14.00
2019-05-03T18:55:59.408Z,14.00
2019-05-03T18:58:40.100Z,13.90
2019-05-03T19:01:20.672Z,13.80
2019-05-03T19:04:02.663Z,13.80
2019-05-03T19:06:45.160Z,13.70
2019-05-03T19:09:27.784Z,13.70
2019-05-03T19:12:10.260Z,13.60
2019-05-03T19:14:50.952Z,13.60
2019-05-03T19:20:39.237Z,13.40
2019-05-03T19:23:19.803Z,13.30
2019-05-03T19:26:00.080Z,13.20
2019-05-03T19:28:40.640Z,13.10
2019-05-03T19:31:21.377Z,13.10
2019-05-03T19:34:02.353Z,13.00
2019-05-03T19:36:42.827Z,12.90
2019-05-03T19:39:25.182Z,12.80
2019-05-03T19:42:06.038Z,12.80
2019-05-03T19:44:48.084Z,12.80
2019-05-03T19:47:28.300Z,12.70
2019-05-03T19:50:08.716Z,12.70
2019-05-03T19:53:08.736Z,12.70
2019-05-03T19:55:50.616Z,12.60
2019-05-03T19:58:31.120Z,12.60
2019-05-03T20:01:31.158Z,12.50
2019-05-03T20:04:12.920Z,12.40
2019-05-03T20:06:55.700Z,12.20
2019-05-03T20:09:36.475Z,12.20
2019-05-03T20:12:16.848Z,12.10
2019-05-03T20:14:57.494Z,12.10
2019-05-03T20:17:37.783Z,12.10
2019-05-03T20:20:18.427Z,12.10
2019-05-03T20:22:59.144Z,12.00
2019-05-03T20:25:39.928Z,12.00
2019-05-03T20:28:20.652Z,12.00
2019-05-03T20:31:01.292Z,12.00
2019-05-03T20:33:42.376Z,11.90
2019-05-03T20:36:22.960Z,11.80
2019-05-03T20:39:05.451Z,11.80
2019-05-03T20:41:46.464Z,11.80
2019-05-03T20:44:28.520Z,11.70
2019-05-03T20:47:10.838Z,11.70
2019-05-03T20:50:11.346Z,11.70
2019-05-03T20:52:52.440Z,11.70
2019-05-03T20:55:34.715Z,11.70
2019-05-03T20:58:15.753Z,11.70
2019-05-03T21:00:57.216Z,11.70
2019-05-03T21:03:37.825Z,11.70
2019-05-03T21:06:18.467Z,11.70
2019-05-03T21:08:58.953Z,11.70
2019-05-03T21:11:39.380Z,11.70
2019-05-03T21:14:20.024Z,11.70
2019-05-03T21:17:04.696Z,11.70
2019-05-03T21:19:46.532Z,11.60
2019-05-03T21:22:27.928Z,11.60
2019-05-03T21:28:16.232Z,11.60
2019-05-03T21:30:57.227Z,11.60
2019-05-03T21:33:37.875Z,11.60
2019-05-03T21:36:18.272Z,11.60
2019-05-03T21:38:59.256Z,11.40
2019-05-03T21:41:39.872Z,11.30
2019-05-03T21:44:39.653Z,11.10
2019-05-03T21:47:24.531Z,11.10
2019-05-03T21:50:04.801Z,11.10
2019-05-03T21:52:45.824Z,11.10
2019-05-03T21:55:26.414Z,11.10
2019-05-03T21:58:07.276Z,11.10
2019-05-03T22:00:49.450Z,11.10
2019-05-03T22:03:29.928Z,11.10
2019-05-03T22:06:10.211Z,11.10
2019-05-03T22:08:50.775Z,11.20
2019-05-03T22:11:31.464Z,11.10
2019-05-03T22:14:15.138Z,11.10
2019-05-03T22:17:14.942Z,11.10
2019-05-03T22:19:56.987Z,11.10
2019-05-03T22:22:39.292Z,11.00
2019-05-03T22:25:21.574Z,11.00
2019-05-03T22:28:01.944Z,10.90
2019-05-03T22:30:42.463Z,10.90
2019-05-03T22:33:23.308Z,10.90
2019-05-03T22:36:08.689Z,10.90
2019-05-03T22:38:45.932Z,10.90
2019-05-03T22:41:26.796Z,10.90
2019-05-03T22:44:07.068Z,10.90
2019-05-03T22:46:47.697Z,10.80
2019-05-03T22:49:28.891Z,10.80
2019-05-03T22:52:09.197Z,10.80
2019-05-03T22:54:49.628Z,10.80
2019-05-03T22:57:30.231Z,10.80
2019-05-03T23:00:10.731Z,10.80
2019-05-03T23:02:51.145Z,10.80
2019-05-03T23:05:31.631Z,10.80
2019-05-03T23:08:12.108Z,10.80
2019-05-03T23:10:54.556Z,10.80
2019-05-03T23:13:34.900Z,10.80
2019-05-03T23:16:15.380Z,10.80
2019-05-03T23:18:55.768Z,10.80
2019-05-03T23:21:40.540Z,10.80
2019-05-03T23:24:21.479Z,10.80
2019-05-03T23:27:02.108Z,10.70
2019-05-03T23:29:30.719Z,10.70
2019-05-03T23:35:13.306Z,10.60
2019-05-03T23:41:07.899Z,10.50
2019-05-03T23:43:48.349Z,10.50
2019-05-03T23:46:30.844Z,10.40
2019-05-03T23:49:11.911Z,10.50
2019-05-03T23:51:55.066Z,10.50
2019-05-03T23:54:36.272Z,10.50
2019-05-03T23:57:16.723Z,10.60
2019-05-03T23:59:57.536Z,10.60
